Arnold Bay, Vermont
Current Conditions -  °F | °C
As of 8:15 AM on Monday 24 Nov 2014 (Local Time) from K6B0 Reporting Station
Light Rain Light Rain  
Wind Chill: 59°   Ceiling: 4100
Heat Index: 59°   Visibility: 7mi
Dew Point: 53°   Wind: 21mph
Humidity: 81%   Direction: 160°SSE
Pressure: 29.54"   Gusts: 33mph
Location:  44.0804°N, 73.3324°W
Report Text: K6B0 241315Z AUTO 16018G29KT 7SM -RA BKN041 BKN050 OVC060 15/12 A2954 RMK AO2 T01500118
Loading
Personal Weather Stations






























Interactive Weather Map New forecast layout! Learn more

10-Day Weather Forecast

Advertisements
Track Severe Weather on mobile